Bornholm Airport

Current Flights

Info
Name: Bornholm Airport
Identifier:  RNN/EKRN
Local Time:  25. Jun 00:17
City
Flights per Day
18 flights
Distance: 178km (110mi)
Punctuality
89% (1 flights per day delayed)
Delay Average: 1 minutes
Current Weather
 16 C (Humidity: 87%)
  10kt (18km/h / 11mph) from 80°
  9km (6 mi.)
 NC
 METAR EKRN 242150Z AUTO 08010KT 9999 NCD 16/14 Q1027

Current Delays

Departures
N/A
Arrivals
N/A

Destinations

Top Destinations
Airport Flights
per week
Seats
per week
  Copenhagen (CPH) 138 5,398 19 771
  Aalborg (AAL) 7 258 1 36
  Billund (BLL) 6 178 0 25
  Karup (KRP) 3 181 0 25
  Odense (ODE) 2 58 0 8
  Aarhus (AAR) 2 - 0 0
  Esbjerg (EBJ) 2 - 0 0
  Bremen (BRE) 0 - 0 0
  Malmo (MMX) 0 - 0 0
  Larnaca (LCA) 0 98 0 14

Airlines & Planes

Top Airlines
Airline Flights
per Day
Seats
per Day
  Danish Air Transport (DAT) 21 652
SAS Scandinavian Airlines 1 208
  Cityjet 0 -
  Lufthansa 0 -
  Thomas Cook Airlines Scandinavia 0 28
Top Plane Types
Model Flights Seats
ATR 76-600 9.9/day - 0
ATR 42-500 3.9/day 164/day 164.06666666666666
ATR 76-200 3.8/day 258/day 258.4
ATR 42-300 2.6/day 119/day 119.6
Airbus A320 Neo 1.2/day 208/day 208.8
McDonnell-Douglas MD-82 1.2/day - 0
McDonnell-Douglas MD-83 0.7/day 110/day 110
Cessna C525 0.2/day - 0
Airbus A321 0.1/day 28/day 28.266666666666666
OTHER Remos GX 0.0/day - 0